createdAt,value
2018-03-20T00:00:40.262Z,29.30
2018-03-20T00:03:08.575Z,29.20
2018-03-20T00:05:38.507Z,29.20
2018-03-20T00:08:07.552Z,29.40
2018-03-20T00:10:35.993Z,29.30
2018-03-20T00:13:04.436Z,29.30
2018-03-20T00:15:33.217Z,29.40
2018-03-20T00:18:01.547Z,29.50
2018-03-20T00:20:30.610Z,29.70
2018-03-20T00:22:58.929Z,29.70
2018-03-20T00:25:27.212Z,29.80
2018-03-20T00:27:55.506Z,29.80
2018-03-20T00:30:23.818Z,29.80
2018-03-20T00:32:52.738Z,29.80
2018-03-20T00:35:21.944Z,29.90
2018-03-20T00:37:50.200Z,29.90
2018-03-20T00:40:18.485Z,29.90
2018-03-20T00:42:46.785Z,30.00
2018-03-20T00:45:15.066Z,30.00
2018-03-20T00:47:44.184Z,30.00
2018-03-20T00:50:12.441Z,30.00
2018-03-20T00:52:40.716Z,30.20
2018-03-20T00:55:09.025Z,30.30
2018-03-20T00:57:37.310Z,30.30
2018-03-20T01:00:05.704Z,30.40
2018-03-20T01:02:33.966Z,30.70
2018-03-20T01:05:02.239Z,30.80
2018-03-20T01:07:30.542Z,30.80
2018-03-20T01:09:58.808Z,30.80
2018-03-20T01:12:27.151Z,30.70
2018-03-20T01:14:55.411Z,30.70
2018-03-20T01:17:23.689Z,30.80
2018-03-20T01:19:51.981Z,30.80
2018-03-20T01:22:20.265Z,30.80
2018-03-20T01:24:48.589Z,30.80
2018-03-20T01:27:16.854Z,30.80
2018-03-20T01:29:45.118Z,30.90
2018-03-20T01:32:13.448Z,30.80
2018-03-20T01:34:41.719Z,30.80
2018-03-20T01:37:10.032Z,30.90
2018-03-20T01:39:38.307Z,31.00
2018-03-20T01:42:06.593Z,31.00
2018-03-20T01:44:34.895Z,31.10
2018-03-20T01:47:03.207Z,31.20
2018-03-20T01:49:31.553Z,31.30
2018-03-20T01:51:59.819Z,31.40
2018-03-20T01:54:28.125Z,31.40
2018-03-20T01:56:56.439Z,31.50
2018-03-20T01:59:27.359Z,31.60
2018-03-20T02:01:55.934Z,31.60
2018-03-20T02:04:24.272Z,32.30
2018-03-20T02:06:52.558Z,31.80
2018-03-20T02:09:20.878Z,31.70
2018-03-20T02:12:07.637Z,31.70
2018-03-20T02:14:35.961Z,31.90
2018-03-20T02:17:04.252Z,31.90
2018-03-20T02:19:32.596Z,32.00
2018-03-20T02:22:00.868Z,32.20
2018-03-20T02:24:29.152Z,32.40
2018-03-20T02:26:57.489Z,32.40
2018-03-20T02:29:25.744Z,32.50
2018-03-20T02:31:54.806Z,32.50
2018-03-20T02:34:23.094Z,32.50
2018-03-20T02:36:51.368Z,32.70
2018-03-20T02:39:19.682Z,32.70
2018-03-20T02:41:48.859Z,32.80
2018-03-20T02:44:17.129Z,32.80
2018-03-20T02:46:45.432Z,32.80
2018-03-20T02:49:13.678Z,32.80
2018-03-20T02:51:41.986Z,32.90
2018-03-20T02:54:11.024Z,33.00
2018-03-20T02:56:39.282Z,33.00
2018-03-20T02:59:07.583Z,33.00
2018-03-20T03:01:35.865Z,33.20
2018-03-20T03:04:04.172Z,33.20
2018-03-20T03:06:32.449Z,33.20
2018-03-20T03:09:00.729Z,33.40
2018-03-20T03:11:29.045Z,33.40
2018-03-20T03:13:57.317Z,33.40
2018-03-20T03:16:26.295Z,33.40
2018-03-20T03:18:54.595Z,33.40
2018-03-20T03:21:22.866Z,34.10
2018-03-20T03:23:51.185Z,33.60
2018-03-20T03:26:19.451Z,33.70
2018-03-20T03:28:48.629Z,33.70
2018-03-20T03:31:16.937Z,33.70
2018-03-20T03:33:45.206Z,33.70
2018-03-20T03:36:13.479Z,33.70
2018-03-20T03:38:41.792Z,33.60
2018-03-20T03:41:10.056Z,33.70
2018-03-20T03:43:38.320Z,33.70
2018-03-20T03:46:06.598Z,34.00
2018-03-20T03:48:34.895Z,33.90
2018-03-20T03:51:03.207Z,34.00
2018-03-20T03:53:31.491Z,34.20
2018-03-20T03:56:00.525Z,34.30
2018-03-20T03:58:29.742Z,34.30
2018-03-20T04:00:58.009Z,34.40
2018-03-20T04:03:26.283Z,34.50
2018-03-20T04:05:54.580Z,34.70
2018-03-20T04:08:22.855Z,34.90
2018-03-20T04:10:51.172Z,35.00
2018-03-20T04:13:20.215Z,35.20
2018-03-20T04:15:48.490Z,35.10
2018-03-20T04:18:16.786Z,35.20
2018-03-20T04:20:45.054Z,35.20
2018-03-20T04:23:13.333Z,35.30
2018-03-20T04:25:41.683Z,35.20
2018-03-20T04:28:09.954Z,35.30
2018-03-20T04:30:38.228Z,35.40
2018-03-20T04:33:06.525Z,35.50
2018-03-20T04:35:34.788Z,35.60
2018-03-20T04:38:03.119Z,35.60
2018-03-20T04:40:31.387Z,35.60
2018-03-20T04:42:59.656Z,35.50
2018-03-20T04:45:27.959Z,35.60
2018-03-20T04:47:56.238Z,35.50
2018-03-20T04:50:24.592Z,35.70
2018-03-20T04:52:52.857Z,35.70
2018-03-20T04:55:21.130Z,35.80
2018-03-20T04:57:49.478Z,35.90
2018-03-20T05:00:18.519Z,35.90
2018-03-20T05:02:46.830Z,35.90
2018-03-20T05:05:15.092Z,35.80
2018-03-20T05:07:43.384Z,35.70
2018-03-20T05:10:11.710Z,35.70
2018-03-20T05:12:39.977Z,35.70
2018-03-20T05:15:08.264Z,35.60
2018-03-20T05:17:36.582Z,35.60
2018-03-20T05:20:06.696Z,35.60
2018-03-20T05:22:40.837Z,35.60
2018-03-20T05:25:09.154Z,35.60
2018-03-20T05:27:37.491Z,35.70
2018-03-20T05:30:05.776Z,35.70
2018-03-20T05:32:34.862Z,36.00
2018-03-20T05:35:03.178Z,36.00
2018-03-20T05:37:31.500Z,36.00
2018-03-20T05:39:59.761Z,36.20
2018-03-20T05:42:28.083Z,36.50
2018-03-20T05:44:56.346Z,36.60
2018-03-20T06:00:49.154Z,37.30
2018-03-20T06:03:17.421Z,37.50
2018-03-20T06:05:45.738Z,37.70
2018-03-20T06:08:14.015Z,37.80
2018-03-20T06:10:42.293Z,38.00
2018-03-20T06:13:10.569Z,37.90
2018-03-20T06:15:38.830Z,37.90
2018-03-20T06:18:07.172Z,37.90
2018-03-20T06:20:35.436Z,37.90
2018-03-20T06:23:04.467Z,37.90
2018-03-20T06:25:32.762Z,37.90
2018-03-20T06:28:01.042Z,38.10
2018-03-20T06:30:29.369Z,38.20
2018-03-20T06:32:58.398Z,38.20
2018-03-20T06:35:26.667Z,38.10
2018-03-20T06:37:54.966Z,38.30
2018-03-20T06:40:23.247Z,38.20
2018-03-20T06:42:51.564Z,38.30
2018-03-20T06:45:19.868Z,38.20
2018-03-20T06:47:48.142Z,38.30
2018-03-20T06:50:17.194Z,38.30
2018-03-20T06:52:45.532Z,38.30
2018-03-20T06:55:13.890Z,38.30
2018-03-20T06:57:42.178Z,38.30
2018-03-20T07:00:10.452Z,38.20
2018-03-20T07:02:38.758Z,38.20
2018-03-20T07:05:07.041Z,38.30
2018-03-20T07:07:38.474Z,38.20
2018-03-20T07:10:06.743Z,38.20
2018-03-20T07:12:35.799Z,38.30
2018-03-20T07:15:04.129Z,38.20
2018-03-20T07:17:32.414Z,38.20
2018-03-20T07:20:00.722Z,38.20
2018-03-20T07:22:28.996Z,38.10
2018-03-20T07:24:57.265Z,38.10
2018-03-20T07:27:25.570Z,38.20
2018-03-20T07:29:53.860Z,38.20
2018-03-20T07:32:22.180Z,38.10
2018-03-20T07:34:50.450Z,38.00
2018-03-20T07:37:18.736Z,38.10
2018-03-20T07:39:47.601Z,38.00
2018-03-20T07:42:16.031Z,38.20
2018-03-20T07:44:44.625Z,38.00
2018-03-20T07:47:13.093Z,38.10
2018-03-20T07:49:41.399Z,38.00
2018-03-20T07:52:09.690Z,38.10
2018-03-20T07:54:38.990Z,38.00
2018-03-20T07:57:07.350Z,37.90
2018-03-20T07:59:35.755Z,37.90
2018-03-20T08:02:04.326Z,38.00
2018-03-20T08:04:32.690Z,38.00
2018-03-20T08:07:00.969Z,37.90
2018-03-20T08:09:29.292Z,37.80
2018-03-20T08:11:57.545Z,37.70
2018-03-20T08:14:25.811Z,37.70
2018-03-20T08:16:54.138Z,38.00
2018-03-20T08:19:22.480Z,37.60
2018-03-20T08:21:50.790Z,37.60
2018-03-20T08:24:19.100Z,37.90
2018-03-20T08:26:47.367Z,37.90
2018-03-20T08:29:15.728Z,37.50
2018-03-20T08:31:44.003Z,37.40
2018-03-20T08:34:12.281Z,37.40
2018-03-20T08:36:40.713Z,37.10
2018-03-20T08:39:09.317Z,37.10
2018-03-20T08:41:38.399Z,36.80
2018-03-20T08:44:06.734Z,36.70
2018-03-20T08:46:34.990Z,36.80
2018-03-20T08:49:03.276Z,36.80
2018-03-20T08:51:31.604Z,36.80
2018-03-20T08:53:59.871Z,36.60
2018-03-20T08:56:28.142Z,36.40
2018-03-20T08:58:56.455Z,36.20
2018-03-20T09:01:24.714Z,36.10
2018-03-20T09:03:53.055Z,35.90
2018-03-20T09:06:21.339Z,35.80
2018-03-20T09:08:50.269Z,35.80
2018-03-20T09:11:18.594Z,35.70
2018-03-20T09:13:47.614Z,35.20
2018-03-20T09:16:15.941Z,35.20
2018-03-20T09:18:45.031Z,35.80
2018-03-20T09:21:13.290Z,35.10
2018-03-20T09:23:41.610Z,35.30
2018-03-20T09:26:09.886Z,35.40
2018-03-20T09:28:38.920Z,35.30
2018-03-20T09:31:07.265Z,35.30
2018-03-20T09:33:35.541Z,35.10
2018-03-20T09:36:04.608Z,34.90
2018-03-20T09:38:32.873Z,34.90
2018-03-20T09:41:01.157Z,35.20
2018-03-20T09:43:29.476Z,35.30
2018-03-20T09:45:57.733Z,35.30
2018-03-20T09:48:26.085Z,35.00
2018-03-20T09:50:55.069Z,34.90
2018-03-20T09:53:23.431Z,34.70
2018-03-20T09:55:51.734Z,34.60
2018-03-20T09:58:20.010Z,34.00
2018-03-20T10:00:48.313Z,33.70
2018-03-20T10:03:16.618Z,33.20
2018-03-20T10:05:45.651Z,33.20
2018-03-20T10:08:13.981Z,33.20
2018-03-20T10:10:42.246Z,33.40
2018-03-20T10:13:10.565Z,33.30
2018-03-20T10:15:38.856Z,33.30
2018-03-20T10:18:07.120Z,32.90
2018-03-20T10:20:35.426Z,32.80
2018-03-20T10:23:03.707Z,33.40
2018-03-20T10:25:32.030Z,32.40
2018-03-20T10:28:00.357Z,32.20
2018-03-20T10:30:28.601Z,31.90
2018-03-20T10:32:56.963Z,32.00
2018-03-20T10:35:26.020Z,31.80
2018-03-20T10:37:54.800Z,31.70
2018-03-20T10:40:23.222Z,31.60
2018-03-20T10:42:51.549Z,31.40
2018-03-20T10:45:19.884Z,31.30
2018-03-20T10:47:48.200Z,31.80
2018-03-20T10:50:16.473Z,30.90
2018-03-20T10:52:44.746Z,30.30
2018-03-20T10:55:13.049Z,30.00
2018-03-20T10:57:41.362Z,29.90
2018-03-20T11:00:09.629Z,29.70
2018-03-20T11:02:43.667Z,29.40
2018-03-20T11:05:12.710Z,29.10
2018-03-20T11:07:40.979Z,29.10
2018-03-20T11:10:09.357Z,29.00
2018-03-20T11:12:37.630Z,29.20
2018-03-20T11:15:05.971Z,29.50
2018-03-20T11:17:34.354Z,29.70
2018-03-20T11:20:02.638Z,29.50
2018-03-20T11:22:31.666Z,29.80
2018-03-20T11:24:59.987Z,29.80
2018-03-20T11:27:28.269Z,29.50
2018-03-20T11:29:56.598Z,29.60
2018-03-20T11:32:24.883Z,29.90
2018-03-20T11:34:53.159Z,30.10
2018-03-20T11:37:21.492Z,30.10
2018-03-20T11:39:49.751Z,30.20
2018-03-20T11:42:18.058Z,30.00
2018-03-20T11:44:46.434Z,29.80
2018-03-20T11:47:15.538Z,29.10
2018-03-20T11:49:43.852Z,29.10
2018-03-20T11:52:12.201Z,28.90
2018-03-20T11:54:40.482Z,28.60
2018-03-20T11:57:08.792Z,29.00
2018-03-20T11:59:37.307Z,28.90
2018-03-20T12:02:05.590Z,28.70
2018-03-20T12:04:33.929Z,28.50
2018-03-20T12:07:02.191Z,28.30
2018-03-20T12:09:50.316Z,28.20
2018-03-20T12:12:19.354Z,28.20
2018-03-20T12:14:47.638Z,28.20
2018-03-20T12:17:15.969Z,28.30
2018-03-20T12:19:44.230Z,28.40
2018-03-20T12:22:12.499Z,28.50
2018-03-20T12:24:40.822Z,28.70
2018-03-20T12:27:09.127Z,28.80
2018-03-20T12:29:37.435Z,28.70
2018-03-20T12:32:05.766Z,28.80
2018-03-20T12:34:34.048Z,29.00
2018-03-20T12:37:02.357Z,29.20
2018-03-20T12:39:30.652Z,29.30
2018-03-20T12:41:59.729Z,29.50
2018-03-20T12:44:28.132Z,29.50
2018-03-20T12:46:56.411Z,29.70
2018-03-20T12:49:24.693Z,29.90
2018-03-20T12:51:53.369Z,30.10
2018-03-20T12:54:21.625Z,30.40
2018-03-20T12:56:49.950Z,30.80
2018-03-20T12:59:18.226Z,31.30
2018-03-20T13:01:47.400Z,31.70
2018-03-20T13:04:15.728Z,32.20
2018-03-20T13:06:43.997Z,32.60
2018-03-20T13:09:12.281Z,32.20
2018-03-20T13:11:40.609Z,31.80
2018-03-20T13:14:08.883Z,31.90
2018-03-20T13:16:37.177Z,32.60
2018-03-20T13:19:05.556Z,31.90
2018-03-20T13:21:34.600Z,32.10
2018-03-20T13:24:02.889Z,32.00
2018-03-20T13:26:31.205Z,32.30
2018-03-20T13:29:00.274Z,33.10
2018-03-20T13:31:28.559Z,32.90
2018-03-20T13:33:56.865Z,33.20
2018-03-20T13:36:25.903Z,33.60
2018-03-20T13:38:54.200Z,33.70
2018-03-20T13:41:22.493Z,33.70
2018-03-20T13:43:50.794Z,33.80
2018-03-20T13:46:19.106Z,34.00
2018-03-20T13:48:47.388Z,34.10
2018-03-20T13:51:16.554Z,34.20
2018-03-20T13:53:44.848Z,34.20
2018-03-20T13:56:13.184Z,34.40
2018-03-20T13:58:41.514Z,34.60
2018-03-20T14:01:09.777Z,34.70
2018-03-20T14:03:38.035Z,35.10
2018-03-20T14:06:07.263Z,35.60
2018-03-20T14:08:35.542Z,35.60
2018-03-20T14:11:03.962Z,35.80
2018-03-20T14:13:32.296Z,36.20
2018-03-20T14:16:00.600Z,36.50
2018-03-20T14:18:28.871Z,36.90
2018-03-20T14:20:57.174Z,37.10
2018-03-20T14:23:25.477Z,37.30
2018-03-20T14:25:53.732Z,37.60
2018-03-20T14:28:22.068Z,37.90
2018-03-20T14:30:58.466Z,38.30
2018-03-20T14:33:26.795Z,38.50
2018-03-20T14:35:55.069Z,38.60
2018-03-20T14:38:23.341Z,38.80
2018-03-20T14:40:52.688Z,39.20
2018-03-20T14:43:20.972Z,39.20
2018-03-20T14:45:49.289Z,39.70
2018-03-20T14:48:17.621Z,40.00
2018-03-20T14:50:45.926Z,40.20
2018-03-20T14:53:14.191Z,40.60
2018-03-20T14:55:42.461Z,40.80
2018-03-20T14:58:10.790Z,41.00
2018-03-20T15:00:39.064Z,41.30
2018-03-20T15:03:07.385Z,41.40
2018-03-20T15:05:35.667Z,41.30
2018-03-20T15:08:03.982Z,41.60
2018-03-20T15:10:32.286Z,41.90
2018-03-20T15:13:01.341Z,42.10
2018-03-20T15:15:29.789Z,42.00
2018-03-20T15:17:58.060Z,42.20
2018-03-20T15:20:26.523Z,42.20
2018-03-20T15:22:55.593Z,42.20
2018-03-20T15:25:23.937Z,42.30
2018-03-20T15:27:52.235Z,42.50
2018-03-20T15:30:20.514Z,42.60
2018-03-20T15:32:48.838Z,42.60
2018-03-20T15:35:17.108Z,42.80
2018-03-20T15:37:45.416Z,43.00
2018-03-20T15:40:13.777Z,43.10
2018-03-20T15:42:42.104Z,43.20
2018-03-20T15:45:10.498Z,43.10
2018-03-20T15:47:41.792Z,43.00
2018-03-20T15:50:10.102Z,43.30
2018-03-20T15:52:38.598Z,43.40
2018-03-20T15:55:06.859Z,43.50
2018-03-20T15:57:35.800Z,43.80
2018-03-20T16:00:04.950Z,43.70
2018-03-20T16:02:33.299Z,43.80
2018-03-20T16:05:01.562Z,44.20
2018-03-20T16:07:29.830Z,44.20
2018-03-20T16:09:58.115Z,44.30
2018-03-20T16:12:27.165Z,44.50
2018-03-20T16:14:55.498Z,44.40
2018-03-20T16:17:23.806Z,44.60
2018-03-20T16:19:52.101Z,44.70
2018-03-20T16:22:20.411Z,44.80
2018-03-20T16:24:48.676Z,45.00
2018-03-20T16:27:16.996Z,45.10
2018-03-20T16:29:45.287Z,45.30
2018-03-20T16:32:13.598Z,45.40
2018-03-20T16:34:42.943Z,45.30
2018-03-20T16:37:11.207Z,45.60
2018-03-20T16:39:39.526Z,45.50
2018-03-20T16:42:07.867Z,45.50
2018-03-20T16:44:36.170Z,45.60
2018-03-20T16:47:04.549Z,45.70
2018-03-20T16:49:33.583Z,45.90
2018-03-20T16:52:01.959Z,45.90
2018-03-20T16:54:30.245Z,46.00
2018-03-20T16:56:58.563Z,46.20
2018-03-20T16:59:27.633Z,46.60
2018-03-20T17:01:55.951Z,46.50
2018-03-20T17:04:25.074Z,46.90
2018-03-20T17:06:53.381Z,47.00
2018-03-20T17:09:21.692Z,46.80
2018-03-20T17:11:50.754Z,47.00
2018-03-20T17:14:19.060Z,47.20
2018-03-20T17:16:47.378Z,47.40
2018-03-20T17:19:15.666Z,47.50
2018-03-20T17:21:43.969Z,47.60
2018-03-20T17:24:12.340Z,47.50
2018-03-20T17:26:40.662Z,47.60
2018-03-20T17:29:08.963Z,48.00
2018-03-20T17:31:37.383Z,48.20
2018-03-20T17:34:05.715Z,48.30
2018-03-20T17:36:34.008Z,48.50
2018-03-20T17:39:02.371Z,48.60
2018-03-20T17:41:31.479Z,49.10
2018-03-20T17:43:59.875Z,49.10
2018-03-20T17:46:29.087Z,49.30
2018-03-20T17:48:57.368Z,49.30
2018-03-20T17:51:25.727Z,49.30
2018-03-20T17:53:54.045Z,49.40
2018-03-20T17:56:22.390Z,49.40
2018-03-20T17:58:50.688Z,49.50
2018-03-20T18:01:19.397Z,49.60
2018-03-20T18:03:51.932Z,49.70
2018-03-20T18:06:20.237Z,49.80
2018-03-20T18:08:48.627Z,50.00
2018-03-20T18:11:18.985Z,50.20
2018-03-20T18:13:48.053Z,50.80
2018-03-20T18:16:16.542Z,50.80
2018-03-20T18:18:44.881Z,51.10
2018-03-20T18:21:13.283Z,51.30
2018-03-20T18:23:41.710Z,51.40
2018-03-20T18:26:10.811Z,51.70
2018-03-20T18:28:39.304Z,51.70
2018-03-20T18:31:08.531Z,51.80
2018-03-20T18:33:36.841Z,52.50
2018-03-20T18:36:06.081Z,52.00
2018-03-20T18:38:34.453Z,52.00
2018-03-20T18:41:02.790Z,52.10
2018-03-20T18:43:31.362Z,52.30
2018-03-20T18:45:59.851Z,52.60
2018-03-20T18:48:28.215Z,52.70
2018-03-20T18:51:00.702Z,52.70
2018-03-20T18:53:29.048Z,52.80
2018-03-20T18:55:57.384Z,53.00
2018-03-20T18:58:27.675Z,53.30
2018-03-20T19:00:56.194Z,53.30
2018-03-20T19:03:24.482Z,53.40
2018-03-20T19:05:52.871Z,53.50
2018-03-20T19:08:21.920Z,53.70
2018-03-20T19:10:50.210Z,53.70
2018-03-20T19:13:18.672Z,53.80
2018-03-20T19:15:47.008Z,53.90
2018-03-20T19:18:16.084Z,53.90
2018-03-20T19:20:44.400Z,53.90
2018-03-20T19:23:12.711Z,53.80
2018-03-20T19:25:41.037Z,53.70
2018-03-20T19:28:09.756Z,53.70
2018-03-20T19:30:38.041Z,53.80
2018-03-20T19:33:06.424Z,53.90
2018-03-20T19:35:35.617Z,53.90
2018-03-20T19:38:03.931Z,54.00
2018-03-20T19:40:32.305Z,53.90
2018-03-20T19:43:00.634Z,54.10
2018-03-20T19:45:29.796Z,54.10
2018-03-20T19:47:58.113Z,54.10
2018-03-20T19:50:27.240Z,54.30
2018-03-20T19:52:55.612Z,54.30
2018-03-20T19:55:24.024Z,54.40
2018-03-20T19:57:52.344Z,54.40
2018-03-20T20:00:21.606Z,54.60
2018-03-20T20:02:49.915Z,54.70
2018-03-20T20:05:18.239Z,54.80
2018-03-20T20:07:46.581Z,55.00
2018-03-20T20:10:14.915Z,55.50
2018-03-20T20:12:43.316Z,55.20
2018-03-20T20:15:13.556Z,55.30
2018-03-20T20:17:41.877Z,55.50
2018-03-20T20:20:10.226Z,55.50
2018-03-20T20:22:38.535Z,55.70
2018-03-20T20:25:06.892Z,55.90
2018-03-20T20:27:35.196Z,56.10
2018-03-20T20:30:03.581Z,56.00
2018-03-20T20:32:31.921Z,56.80
2018-03-20T20:35:00.273Z,56.20
2018-03-20T20:37:28.562Z,56.20
2018-03-20T20:39:56.959Z,56.30
2018-03-20T20:42:26.035Z,56.30
2018-03-20T20:44:54.419Z,56.30
2018-03-20T20:47:23.494Z,56.40
2018-03-20T20:49:51.796Z,56.40
2018-03-20T20:52:21.482Z,56.70
2018-03-20T20:54:49.834Z,56.70
2018-03-20T20:57:18.205Z,56.70
2018-03-20T20:59:47.039Z,56.80
2018-03-20T21:02:15.338Z,56.90
2018-03-20T21:04:43.673Z,57.70
2018-03-20T21:07:12.054Z,57.10
2018-03-20T21:09:40.416Z,57.10
2018-03-20T21:12:09.465Z,57.10
2018-03-20T21:14:37.965Z,57.00
2018-03-20T21:17:06.336Z,57.10
2018-03-20T21:19:34.685Z,56.90
2018-03-20T21:22:04.953Z,56.80
2018-03-20T21:24:34.271Z,56.60
2018-03-20T21:27:02.860Z,56.60
2018-03-20T21:29:31.280Z,56.50
2018-03-20T21:31:59.680Z,56.50
2018-03-20T21:34:28.017Z,56.40
2018-03-20T21:36:56.363Z,56.40
2018-03-20T21:39:24.632Z,56.30
2018-03-20T21:41:52.891Z,56.30
2018-03-20T21:44:21.236Z,56.40
2018-03-20T21:46:49.549Z,56.30
2018-03-20T21:49:18.005Z,56.30
2018-03-20T21:51:46.328Z,56.20
2018-03-20T21:54:15.461Z,56.10
2018-03-20T21:56:43.871Z,56.10
2018-03-20T21:59:12.156Z,56.00
2018-03-20T22:01:40.681Z,56.60
2018-03-20T22:04:09.001Z,56.10
2018-03-20T22:06:37.340Z,56.00
2018-03-20T22:09:05.813Z,55.90
2018-03-20T22:11:34.557Z,56.00
2018-03-20T22:14:03.010Z,56.00
2018-03-20T22:16:31.402Z,56.00
2018-03-20T22:18:59.737Z,56.20
2018-03-20T22:21:28.091Z,56.20
2018-03-20T22:23:56.372Z,56.30
2018-03-20T22:26:24.876Z,56.20
2018-03-20T22:28:53.945Z,56.10
2018-03-20T22:31:22.192Z,56.10
2018-03-20T22:33:51.724Z,56.10
2018-03-20T22:36:20.003Z,56.10
2018-03-20T22:38:48.287Z,56.10
2018-03-20T22:41:16.608Z,56.10
2018-03-20T22:43:46.089Z,56.10
2018-03-20T22:46:14.407Z,56.10
2018-03-20T22:48:42.727Z,56.10
2018-03-20T22:51:11.146Z,56.10
2018-03-20T22:53:39.448Z,56.00
2018-03-20T22:56:07.784Z,55.80
2018-03-20T22:58:36.103Z,55.70
2018-03-20T23:01:04.414Z,55.60
2018-03-20T23:03:32.673Z,55.60
2018-03-20T23:06:00.965Z,55.50
2018-03-20T23:08:30.124Z,55.50
2018-03-20T23:10:58.485Z,55.50
2018-03-20T23:13:26.773Z,55.60
2018-03-20T23:15:55.235Z,55.70
2018-03-20T23:18:25.157Z,55.40
2018-03-20T23:20:53.446Z,55.40
2018-03-20T23:23:21.733Z,55.30
2018-03-20T23:25:50.029Z,55.30
2018-03-20T23:28:18.313Z,55.20
2018-03-20T23:30:46.569Z,55.20
2018-03-20T23:33:15.569Z,55.20
2018-03-20T23:35:43.896Z,55.30
2018-03-20T23:38:14.805Z,55.30
2018-03-20T23:40:43.135Z,55.30
2018-03-20T23:43:12.924Z,55.30
2018-03-20T23:45:41.214Z,55.20
2018-03-20T23:48:11.259Z,55.20
2018-03-20T23:50:39.550Z,55.10
2018-03-20T23:53:07.853Z,55.20
2018-03-20T23:55:36.130Z,55.10
2018-03-20T23:58:04.451Z,55.10
